Current | Forecast
Updated: 8:00 PM JST on March 29, 2017
Observed at Kagoshima Airport, Japan
Temperature 48°F
Humidity 100%
Dew Point 48°F
Wind NE at 5 mph
Pressure 30.18 in (Steady)
Conditions Light Rain Showers
Visibility 2.2 miles
UV 0 out of 16
Clouds (FEW) : 800 ft
Scattered Clouds (SCT) : 1500 ft
Mostly Cloudy (BKN) : 2000 ft
Yesterday's Maximum 59°F
Yesterday's Minimum 37°F approx.
Yesterday's Heating Degree Days 17 approx.
Sunrise6:09 AM JST
Sunset6:34 PM JST
Moon Rise6:58 AM JST
Moon Set7:50 PM JST
Moon PhaseMoon Phase
Waxing Crescent
Raw METARMETAR RJFK 291100Z 05004KT 3500 -SHRA BR FEW008 SCT015 BKN020 09/09 Q1022 RMK 1ST008 4CU015 7CU020 A3018


Monday
. High: 71° F.
Tuesday
. High: 71° F.
Wednesday
. High: 71° F.
Thursday
. High: 73° F.
Friday
. High: 66° F.
Saturday
. High: 77° F.
Sunday
. High: 75° F.
Monday
. High: 71° F.

Units: English | Metric

Find the Weather for any City, State or Zipcode, or Country:

U.S. State List | Severe Weather | Tropical Storms | Ski Conditions
United States | Canada | Central America | South America | Asia | Europe | Australia | Africa | Islands

Weather Underground

© Copyright 2017
The Weather Company, LLC